Time;durP1;ratioP1;P1;durP2;ratioP2;P2;SDS_P1;SDS_P2;PMS_P1;PMS_P2;Temp;Humidity;BMP_temperature;BMP_pressure;BME280_temperature;BME280_humidity;BME280_pressure;Samples;Min_cycle;Max_cycle;Signal;HPM_P1;HPM_P2
2022/08/21 00:07:40;;;;;;;;;;;;;;;;;;20561664;28;101189;-72
2022/08/21 00:17:40;;;;;;;;;;;;;;;;;;20564494;27;103864;-71
2022/08/21 00:27:42;;;;;;;;;;;;;;;;;;20518395;27;101246;-73
2022/08/21 00:37:42;;;;;;;;;;;;;;;;;;20559090;27;100556;-73
2022/08/21 00:47:42;;;;;;;;;;;;;;;;;;20574242;27;101066;-73
2022/08/21 00:57:42;;;;;;;;;;;;;;;;;;20566474;27;100967;-72
2022/08/21 01:07:44;;;;;;;;;;;;;;;;;;20563245;27;102216;-73
2022/08/21 01:17:44;;;;;;;;;;;;;;;;;;20566582;28;103347;-73
2022/08/21 01:27:44;;;;;;;;;;;;;;;;;;20561934;28;103470;-72
2022/08/21 01:37:45;;;;;;;;;;;;;;;;;;20560721;28;104689;-73
2022/08/21 01:47:45;;;;;;;;;;;;;;;;;;20561396;28;104076;-73
2022/08/21 01:57:45;;;;;;;;;;;;;;;;;;20562081;27;101481;-73
2022/08/21 02:07:45;;;;;;;;;;;;;;;;;;20567491;27;104478;-72
2022/08/21 02:17:45;;;;;;;;;;;;;;;;;;20561594;27;101140;-72
2022/08/21 02:27:47;;;;;;;;;;;;;;;;;;20560702;28;101339;-72
2022/08/21 02:37:47;;;;;;;;;;;;;;;;;;20559343;27;101198;-73
2022/08/21 02:47:47;;;;;;;;;;;;;;;;;;20563945;28;100605;-73
2022/08/21 02:57:48;;;;;;;;;;;;;;;;;;20566918;28;103488;-73
2022/08/21 03:07:48;;;;;;;;;;;;;;;;;;20576001;28;103753;-70
2022/08/21 03:17:48;;;;;;;;;;;;;;;;;;20573012;27;100821;-73
2022/08/21 03:27:48;;;;;;;;;;;;;;;;;;20575403;28;100903;-73
2022/08/21 03:37:48;;;;;;;;;;;;;;;;;;20557049;28;105425;-73
2022/08/21 03:47:49;;;;;;;;;;;;;;;;;;20493543;28;102022;-73
2022/08/21 03:57:49;;;;;;;;;;;;;;;;;;20493063;28;101387;-72
2022/08/21 04:07:49;;;;;;;;;;;;;;;;;;20481214;28;102557;-72
2022/08/21 04:17:50;;;;;;;;;;;;;;;;;;20484472;28;104155;-72
2022/08/21 04:27:50;;;;;;;;;;;;;;;;;;20483300;28;101614;-73
2022/08/21 04:37:51;;;;;;;;;;;;;;;;;;20499214;28;102159;-72
2022/08/21 04:47:51;;;;;;;;;;;;;;;;;;20490872;28;101740;-73
2022/08/21 04:57:53;;;;;;;;;;;;;;;;;;20483506;28;101638;-73
2022/08/21 05:07:53;;;;;;;;;;;;;;;;;;20484761;28;101421;-73
2022/08/21 05:17:53;;;;;;;;;;;;;;;;;;20500877;28;99868;-73
2022/08/21 05:27:53;;;;;;;;;;;;;;;;;;20483431;28;101527;-74
2022/08/21 05:37:53;;;;;;;;;;;;;;;;;;20486113;28;101722;-73
2022/08/21 05:47:54;;;;;;;;;;;;;;;;;;20488808;28;100432;-73
2022/08/21 05:57:54;;;;;;;;;;;;;;;;;;20503663;28;103768;-73
2022/08/21 06:07:54;;;;;;;;;;;;;;;;;;20481484;28;101618;-71
2022/08/21 06:17:54;;;;;;;;;;;;;;;;;;20568376;27;102500;-73
2022/08/21 06:27:54;;;;;;;;;;;;;;;;;;20580217;28;100539;-71
2022/08/21 06:37:54;;;;;;;;;;;;;;;;;;20559901;28;100936;-72
2022/08/21 06:47:57;;;;;;;;;;;;;;;;;;20572696;27;103459;-71
2022/08/21 06:57:57;;;;;;;;;;;;;;;;;;20573217;27;99956;-72
2022/08/21 07:07:57;;;;;;;;;;;;;;;;;;20529749;28;101145;-72
2022/08/21 07:17:57;;;;;;;;;;;;;;;;;;20497571;28;100445;-72
2022/08/21 07:27:57;;;;;;;;;;;;;;;;;;20505144;28;99749;-72
2022/08/21 07:37:57;;;;;;;;;;;;;;;;;;20486527;28;100720;-71
2022/08/21 07:47:57;;;;;;;;;;;;;;;;;;20510894;28;100976;-72
2022/08/21 07:57:58;;;;;;;;;;;;;;;;;;20494688;28;101841;-72
2022/08/21 08:08:00;;;;;;;;;;;;;;;;;;20498068;28;100711;-70
2022/08/21 08:18:00;;;;;;;;;;;;;;;;;;20497795;28;104510;-72
2022/08/21 08:28:00;;;;;;;;;;;;;;;;;;20478317;28;103416;-75
2022/08/21 08:38:00;;;;;;;;;;;;;;;;;;20492230;28;101549;-73
2022/08/21 08:48:00;;;;;;;;;;;;;;;;;;20509028;28;100339;-72
2022/08/21 08:58:03;;;;;;;;;;;;;;;;;;20514487;28;101468;-73
2022/08/21 09:08:03;;;;;;;;;;;;;;;;;;20496391;28;101171;-73
2022/08/21 09:18:03;;;;;;;;;;;;;;;;;;20502287;28;101044;-73
2022/08/21 09:28:04;;;;;;;;;;;;;;;;;;20478850;28;100201;-73
2022/08/21 09:38:07;;;;;;;;;;;;;;;;;;20456795;28;101430;-74
2022/08/21 09:48:07;;;;;;;;;;;;;;;;;;20494280;28;100948;-73
2022/08/21 09:58:07;;;;;;;;;;;;;;;;;;20490818;28;100743;-72
2022/08/21 10:08:07;;;;;;;;;;;;;;;;;;20479943;28;104200;-72
2022/08/21 10:18:07;;;;;;;;;;;;;;;;;;20464837;28;104221;-73
2022/08/21 10:28:07;;;;;;;;;;;;;;;;;;20444820;28;101557;-71
2022/08/21 10:38:07;;;;;;;;;;;;;;;;;;20491177;28;103809;-72
2022/08/21 10:48:08;;;;;;;;;;;;;;;;;;20486530;28;100815;-72
2022/08/21 10:58:09;;;;;;;;;;;;;;;;;;20486528;28;101553;-71
2022/08/21 11:08:09;;;;;;;;;;;;;;;;;;20487072;28;103881;-73
2022/08/21 11:18:09;;;;;;;;;;;;;;;;;;20503216;28;101298;-73
2022/08/21 11:28:09;;;;;;;;;;;;;;;;;;20499628;28;100475;-73
2022/08/21 11:38:09;;;;;;;;;;;;;;;;;;20489762;28;101300;-72
2022/08/21 11:48:09;;;;;;;;;;;;;;;;;;20489628;28;104222;-72
2022/08/21 11:58:10;;;;;;;;;;;;;;;;;;20495457;28;101346;-72
2022/08/21 12:08:10;;;;;;;;;;;;;;;;;;20496974;28;101371;-72
2022/08/21 12:18:10;;;;;;;;;;;;;;;;;;20500718;28;101502;-72
2022/08/21 12:28:10;;;;;;;;;;;;;;;;;;20498703;28;105987;-72
2022/08/21 12:38:10;;;;;;;;;;;;;;;;;;20492093;28;106699;-72
2022/08/21 12:48:10;;;;;;;;;;;;;;;;;;20499940;28;100416;-73
2022/08/21 12:58:11;;;;;;;;;;;;;;;;;;20487581;28;101514;-72
2022/08/21 13:08:11;;;;;;;;;;;;;;;;;;20491580;28;103855;-72
2022/08/21 13:18:11;;;;;;;;;;;;;;;;;;20492181;28;100619;-70
2022/08/21 13:28:12;;;;;;;;;;;;;;;;;;20483135;28;100496;-73
2022/08/21 13:38:12;;;;;;;;;;;;;;;;;;20457630;28;103475;-74
2022/08/21 13:48:12;;;;;;;;;;;;;;;;;;20454040;28;103068;-72
2022/08/21 13:58:13;;;;;;;;;;;;;;;;;;20492210;28;101448;-73
2022/08/21 14:08:13;;;;;;;;;;;;;;;;;;20493608;28;100458;-73
2022/08/21 14:18:13;;;;;;;;;;;;;;;;;;20485916;28;104026;-72
2022/08/21 14:28:13;;;;;;;;;;;;;;;;;;20494436;28;103650;-73
2022/08/21 14:38:13;;;;;;;;;;;;;;;;;;20483468;28;101264;-73
2022/08/21 14:48:13;;;;;;;;;;;;;;;;;;20491587;28;103872;-73
2022/08/21 14:58:16;;;;;;;;;;;;;;;;;;20496210;28;101758;-73
2022/08/21 15:08:16;;;;;;;;;;;;;;;;;;20478065;28;105094;-73
2022/08/21 15:18:16;;;;;;;;;;;;;;;;;;20483907;28;101341;-73
2022/08/21 15:28:16;;;;;;;;;;;;;;;;;;20501429;28;101627;-73
2022/08/21 15:38:16;;;;;;;;;;;;;;;;;;20495146;28;101055;-73
2022/08/21 15:48:17;;;;;;;;;;;;;;;;;;20502477;28;100899;-72
2022/08/21 15:58:17;;;;;;;;;;;;;;;;;;20490970;28;101313;-72
2022/08/21 16:08:18;;;;;;;;;;;;;;;;;;20496794;28;103861;-72
2022/08/21 16:18:18;;;;;;;;;;;;;;;;;;20495253;28;102884;-72
2022/08/21 16:28:19;;;;;;;;;;;;;;;;;;20508512;28;102689;-73
2022/08/21 16:38:19;;;;;;;;;;;;;;;;;;20514824;28;99790;-72
2022/08/21 16:48:19;;;;;;;;;;;;;;;;;;20505104;28;102137;-72
2022/08/21 16:58:21;;;;;;;;;;;;;;;;;;20515017;28;101655;-71
2022/08/21 17:08:21;;;;;;;;;;;;;;;;;;20513217;28;100485;-71
2022/08/21 17:18:21;;;;;;;;;;;;;;;;;;20514446;28;100593;-70
2022/08/21 17:28:23;;;;;;;;;;;;;;;;;;20500123;28;100615;-72
2022/08/21 17:38:23;;;;;;;;;;;;;;;;;;20493305;28;102102;-71
2022/08/21 17:48:23;;;;;;;;;;;;;;;;;;20491589;28;101337;-72
2022/08/21 17:58:24;;;;;;;;;;;;;;;;;;20493177;28;100482;-72
2022/08/21 18:08:24;;;;;;;;;;;;;;;;;;20491607;28;101925;-72
2022/08/21 18:18:24;;;;;;;;;;;;;;;;;;20482206;28;101542;-71
2022/08/21 18:28:24;;;;;;;;;;;;;;;;;;20480466;28;101821;-72
2022/08/21 18:38:24;;;;;;;;;;;;;;;;;;20475058;28;101372;-72
2022/08/21 18:48:24;;;;;;;;;;;;;;;;;;20485948;28;101092;-72
2022/08/21 18:58:24;;;;;;;;;;;;;;;;;;20499864;28;100752;-72
2022/08/21 19:08:27;;;;;;;;;;;;;;;;;;20493405;28;101281;-70
2022/08/21 19:18:27;;;;;;;;;;;;;;;;;;20492911;28;101785;-71
2022/08/21 19:28:28;;;;;;;;;;;;;;;;;;20505911;28;100852;-71
2022/08/21 19:38:28;;;;;;;;;;;;;;;;;;20504155;28;100871;-72
2022/08/21 19:48:28;;;;;;;;;;;;;;;;;;20558670;27;101625;-72
2022/08/21 19:58:29;;;;;;;;;;;;;;;;;;20564354;27;101422;-73
2022/08/21 20:08:29;;;;;;;;;;;;;;;;;;20556544;27;104070;-71
2022/08/21 20:18:29;;;;;;;;;;;;;;;;;;20558048;27;101166;-71
2022/08/21 20:28:29;;;;;;;;;;;;;;;;;;20548659;28;101640;-72
2022/08/21 20:38:29;;;;;;;;;;;;;;;;;;20570330;28;101335;-73
2022/08/21 20:48:29;;;;;;;;;;;;;;;;;;20585929;27;101600;-73
2022/08/21 20:58:30;;;;;;;;;;;;;;;;;;20584672;28;100901;-73
2022/08/21 21:08:30;;;;;;;;;;;;;;;;;;20559344;28;101608;-71
2022/08/21 21:18:30;;;;;;;;;;;;;;;;;;20564848;28;103900;-68
2022/08/21 21:28:30;;;;;;;;;;;;;;;;;;20552069;27;103612;-71
2022/08/21 21:38:30;;;;;;;;;;;;;;;;;;20565172;28;101424;-71
2022/08/21 21:48:30;;;;;;;;;;;;;;;;;;20564819;27;101040;-71
2022/08/21 21:58:31;;;;;;;;;;;;;;;;;;20563895;28;101665;-72
2022/08/21 22:08:31;;;;;;;;;;;;;;;;;;20565760;28;104161;-73
2022/08/21 22:18:31;;;;;;;;;;;;;;;;;;20571319;28;101765;-72
2022/08/21 22:28:32;;;;;;;;;;;;;;;;;;20566184;27;101033;-72
2022/08/21 22:38:32;;;;;;;;;;;;;;;;;;20564367;27;101550;-72
2022/08/21 22:48:32;;;;;;;;;;;;;;;;;;20566755;27;101271;-72
2022/08/21 22:58:33;;;;;;;;;;;;;;;;;;20544861;27;100881;-72
2022/08/21 23:08:33;;;;;;;;;;;;;;;;;;20551616;27;101687;-72
2022/08/21 23:18:33;;;;;;;;;;;;;;;;;;20536912;27;105133;-71
2022/08/21 23:28:33;;;;;;;;;;;;;;;;;;20530664;27;106367;-71
2022/08/21 23:38:33;;;;;;;;;;;;;;;;;;20561985;27;101878;-72
2022/08/21 23:48:34;;;;;;;;;;;;;;;;;;20567473;27;104112;-72
2022/08/21 23:58:34;;;;;;;;;;;;;;;;;;20562742;28;101008;-72
